sensor_id;sensor_type;location;lat;lon;timestamp;pressure;altitude;pressure_sealevel;temperature;humidity
45793;BME280;31495;42.740;22.908;2024-03-06T00:00:26;92845.31;;;3.49;73.54
45793;BME280;31495;42.740;22.908;2024-03-06T00:01:25;92847.06;;;3.49;73.41
45793;BME280;31495;42.740;22.908;2024-03-06T00:02:25;92850.50;;;3.41;73.22
45793;BME280;31495;42.740;22.908;2024-03-06T00:03:24;92808.81;;;3.18;73.32
45793;BME280;31495;42.740;22.908;2024-03-06T00:04:24;92839.69;;;3.31;72.97
45793;BME280;31495;42.740;22.908;2024-03-06T00:05:24;92809.56;;;3.03;73.38
45793;BME280;31495;42.740;22.908;2024-03-06T00:06:24;92815.53;;;2.96;73.48
45793;BME280;31495;42.740;22.908;2024-03-06T00:07:24;92811.91;;;2.90;73.68
45793;BME280;31495;42.740;22.908;2024-03-06T00:08:24;92849.84;;;3.01;73.99
45793;BME280;31495;42.740;22.908;2024-03-06T00:09:24;92834.16;;;2.81;74.46
45793;BME280;31495;42.740;22.908;2024-03-06T00:10:26;92836.59;;;2.74;74.50
45793;BME280;31495;42.740;22.908;2024-03-06T00:11:25;92823.88;;;2.66;74.97
45793;BME280;31495;42.740;22.908;2024-03-06T00:12:25;92777.28;;;2.41;74.86
45793;BME280;31495;42.740;22.908;2024-03-06T00:13:24;92858.00;;;2.97;74.60
45793;BME280;31495;42.740;22.908;2024-03-06T00:14:24;92841.31;;;2.86;74.50
45793;BME280;31495;42.740;22.908;2024-03-06T00:15:25;92856.59;;;2.94;74.60
45793;BME280;31495;42.740;22.908;2024-03-06T00:16:25;92842.91;;;2.87;74.68
45793;BME280;31495;42.740;22.908;2024-03-06T00:17:26;92833.72;;;2.78;74.78
45793;BME280;31495;42.740;22.908;2024-03-06T00:18:26;92843.72;;;2.87;74.81
45793;BME280;31495;42.740;22.908;2024-03-06T00:19:25;92828.16;;;2.74;74.89
45793;BME280;31495;42.740;22.908;2024-03-06T00:20:26;92853.75;;;2.89;74.99
45793;BME280;31495;42.740;22.908;2024-03-06T00:21:25;92837.00;;;2.86;74.65
45793;BME280;31495;42.740;22.908;2024-03-06T00:22:25;92792.13;;;2.61;74.95
45793;BME280;31495;42.740;22.908;2024-03-06T00:23:28;92823.94;;;2.81;74.69
45793;BME280;31495;42.740;22.908;2024-03-06T00:24:27;92842.38;;;2.91;74.82
45793;BME280;31495;42.740;22.908;2024-03-06T00:25:27;92840.28;;;2.95;74.84
45793;BME280;31495;42.740;22.908;2024-03-06T00:26:27;92842.50;;;2.98;74.78
45793;BME280;31495;42.740;22.908;2024-03-06T00:27:26;92827.22;;;2.90;74.46
45793;BME280;31495;42.740;22.908;2024-03-06T00:28:26;92840.22;;;3.03;74.55
45793;BME280;31495;42.740;22.908;2024-03-06T00:29:26;92838.38;;;2.97;74.64
45793;BME280;31495;42.740;22.908;2024-03-06T00:30:26;92834.16;;;3.04;74.68
45793;BME280;31495;42.740;22.908;2024-03-06T00:31:26;92826.66;;;3.03;74.55
45793;BME280;31495;42.740;22.908;2024-03-06T00:32:26;92810.00;;;2.92;74.62
45793;BME280;31495;42.740;22.908;2024-03-06T00:33:27;92832.75;;;3.02;74.72
45793;BME280;31495;42.740;22.908;2024-03-06T00:34:27;92848.03;;;3.10;74.72
45793;BME280;31495;42.740;22.908;2024-03-06T00:35:27;92794.41;;;2.79;74.82
45793;BME280;31495;42.740;22.908;2024-03-06T00:36:28;92810.22;;;2.82;74.65
45793;BME280;31495;42.740;22.908;2024-03-06T00:37:28;92821.00;;;2.92;74.62
45793;BME280;31495;42.740;22.908;2024-03-06T00:38:27;92797.59;;;2.81;74.65
45793;BME280;31495;42.740;22.908;2024-03-06T00:39:27;92839.88;;;3.06;74.60
45793;BME280;31495;42.740;22.908;2024-03-06T00:40:27;92823.81;;;2.98;74.73
45793;BME280;31495;42.740;22.908;2024-03-06T00:41:27;92762.41;;;2.68;74.71
45793;BME280;31495;42.740;22.908;2024-03-06T00:42:27;92833.31;;;3.12;75.03
45793;BME280;31495;42.740;22.908;2024-03-06T00:43:27;92778.97;;;2.72;75.11
45793;BME280;31495;42.740;22.908;2024-03-06T00:44:27;92809.09;;;3.00;74.97
45793;BME280;31495;42.740;22.908;2024-03-06T00:45:27;92756.19;;;2.62;74.81
45793;BME280;31495;42.740;22.908;2024-03-06T00:46:27;92776.00;;;2.83;74.34
45793;BME280;31495;42.740;22.908;2024-03-06T00:47:27;92791.34;;;2.83;74.44
45793;BME280;31495;42.740;22.908;2024-03-06T00:48:27;92836.81;;;3.11;74.45
45793;BME280;31495;42.740;22.908;2024-03-06T00:49:28;92834.59;;;3.08;74.05
45793;BME280;31495;42.740;22.908;2024-03-06T00:50:28;92779.88;;;2.79;73.91
45793;BME280;31495;42.740;22.908;2024-03-06T00:51:28;92786.41;;;2.82;74.10
45793;BME280;31495;42.740;22.908;2024-03-06T00:52:28;92779.78;;;2.72;74.11
45793;BME280;31495;42.740;22.908;2024-03-06T00:53:28;92831.78;;;3.03;74.17
45793;BME280;31495;42.740;22.908;2024-03-06T00:54:28;92813.84;;;2.88;74.21
45793;BME280;31495;42.740;22.908;2024-03-06T00:55:28;92818.66;;;2.83;74.27
45793;BME280;31495;42.740;22.908;2024-03-06T00:56:28;92805.00;;;2.75;74.08
45793;BME280;31495;42.740;22.908;2024-03-06T00:57:28;92793.84;;;2.68;74.24
45793;BME280;31495;42.740;22.908;2024-03-06T00:58:28;92807.00;;;2.80;74.04
45793;BME280;31495;42.740;22.908;2024-03-06T00:59:28;92826.88;;;2.93;74.03
45793;BME280;31495;42.740;22.908;2024-03-06T01:00:29;92828.03;;;2.90;73.96
45793;BME280;31495;42.740;22.908;2024-03-06T01:01:29;92846.66;;;2.99;74.05
45793;BME280;31495;42.740;22.908;2024-03-06T01:02:29;92828.72;;;2.84;73.86
45793;BME280;31495;42.740;22.908;2024-03-06T01:03:29;92847.50;;;2.91;74.04
45793;BME280;31495;42.740;22.908;2024-03-06T01:04:31;92852.78;;;2.90;74.34
45793;BME280;31495;42.740;22.908;2024-03-06T01:05:31;92810.44;;;2.72;73.79
45793;BME280;31495;42.740;22.908;2024-03-06T01:06:30;92837.66;;;2.80;73.94
45793;BME280;31495;42.740;22.908;2024-03-06T01:07:30;92807.00;;;2.57;73.89
45793;BME280;31495;42.740;22.908;2024-03-06T01:08:30;92801.44;;;2.53;74.05
45793;BME280;31495;42.740;22.908;2024-03-06T01:09:31;92806.22;;;2.56;73.93
45793;BME280;31495;42.740;22.908;2024-03-06T01:10:30;92800.38;;;2.48;73.97
45793;BME280;31495;42.740;22.908;2024-03-06T01:11:30;92803.81;;;2.32;74.56
45793;BME280;31495;42.740;22.908;2024-03-06T01:12:30;92849.94;;;2.62;74.72
45793;BME280;31495;42.740;22.908;2024-03-06T01:13:30;92860.31;;;2.60;74.24
45793;BME280;31495;42.740;22.908;2024-03-06T01:14:30;92842.81;;;2.49;74.29
45793;BME280;31495;42.740;22.908;2024-03-06T01:15:30;92814.19;;;2.30;74.23
45793;BME280;31495;42.740;22.908;2024-03-06T01:16:30;92758.78;;;2.08;73.97
45793;BME280;31495;42.740;22.908;2024-03-06T01:17:30;92804.09;;;2.37;73.98
45793;BME280;31495;42.740;22.908;2024-03-06T01:18:30;92839.72;;;2.62;74.46
45793;BME280;31495;42.740;22.908;2024-03-06T01:19:30;92761.94;;;2.10;74.66
45793;BME280;31495;42.740;22.908;2024-03-06T01:20:30;92839.38;;;2.65;74.41
45793;BME280;31495;42.740;22.908;2024-03-06T01:21:30;92844.81;;;2.62;74.49
45793;BME280;31495;42.740;22.908;2024-03-06T01:22:30;92732.25;;;1.86;74.86
45793;BME280;31495;42.740;22.908;2024-03-06T01:23:33;92853.03;;;2.49;75.10
45793;BME280;31495;42.740;22.908;2024-03-06T01:24:32;92792.41;;;2.11;75.13
45793;BME280;31495;42.740;22.908;2024-03-06T01:25:32;92843.13;;;2.46;75.18
45793;BME280;31495;42.740;22.908;2024-03-06T01:26:31;92837.91;;;2.39;75.33
45793;BME280;31495;42.740;22.908;2024-03-06T01:27:31;92848.94;;;2.39;75.54
45793;BME280;31495;42.740;22.908;2024-03-06T01:28:31;92841.44;;;2.38;75.58
45793;BME280;31495;42.740;22.908;2024-03-06T01:29:31;92849.22;;;2.45;75.43
45793;BME280;31495;42.740;22.908;2024-03-06T01:30:31;92847.13;;;2.48;75.22
45793;BME280;31495;42.740;22.908;2024-03-06T01:31:31;92829.47;;;2.38;75.20
45793;BME280;31495;42.740;22.908;2024-03-06T01:32:31;92836.94;;;2.40;75.25
45793;BME280;31495;42.740;22.908;2024-03-06T01:33:32;92806.22;;;2.25;74.84
45793;BME280;31495;42.740;22.908;2024-03-06T01:34:32;92835.03;;;2.42;74.81
45793;BME280;31495;42.740;22.908;2024-03-06T01:35:32;92804.34;;;2.19;74.70
45793;BME280;31495;42.740;22.908;2024-03-06T01:36:34;92836.00;;;2.41;74.24
45793;BME280;31495;42.740;22.908;2024-03-06T01:37:34;92844.50;;;2.33;74.43
45793;BME280;31495;42.740;22.908;2024-03-06T01:38:34;92850.22;;;2.35;74.80
45793;BME280;31495;42.740;22.908;2024-03-06T01:39:34;92852.81;;;2.27;74.69
45793;BME280;31495;42.740;22.908;2024-03-06T01:40:35;92809.53;;;1.94;75.17
45793;BME280;31495;42.740;22.908;2024-03-06T01:41:34;92809.50;;;2.02;74.84
45793;BME280;31495;42.740;22.908;2024-03-06T01:42:33;92837.69;;;2.17;74.99
45793;BME280;31495;42.740;22.908;2024-03-06T01:43:37;92807.91;;;2.01;74.84
45793;BME280;31495;42.740;22.908;2024-03-06T01:44:37;92755.75;;;1.73;74.61
45793;BME280;31495;42.740;22.908;2024-03-06T01:45:37;92803.63;;;2.02;74.66
45793;BME280;31495;42.740;22.908;2024-03-06T01:46:36;92855.81;;;2.31;74.94
45793;BME280;31495;42.740;22.908;2024-03-06T01:47:36;92795.69;;;1.97;74.71
45793;BME280;31495;42.740;22.908;2024-03-06T01:48:35;92862.84;;;2.29;74.64
45793;BME280;31495;42.740;22.908;2024-03-06T01:49:35;92842.19;;;2.07;74.71
45793;BME280;31495;42.740;22.908;2024-03-06T01:50:34;92828.38;;;1.85;75.28
45793;BME280;31495;42.740;22.908;2024-03-06T01:51:35;92856.41;;;2.01;75.70
45793;BME280;31495;42.740;22.908;2024-03-06T01:52:37;92864.38;;;2.07;75.61
45793;BME280;31495;42.740;22.908;2024-03-06T01:53:38;92826.81;;;1.84;75.54
45793;BME280;31495;42.740;22.908;2024-03-06T01:54:38;92799.72;;;1.75;75.67
45793;BME280;31495;42.740;22.908;2024-03-06T01:55:38;92856.53;;;2.08;75.88
45793;BME280;31495;42.740;22.908;2024-03-06T01:56:44;92732.94;;;1.32;76.08
45793;BME280;31495;42.740;22.908;2024-03-06T01:57:43;92818.66;;;1.89;75.81
45793;BME280;31495;42.740;22.908;2024-03-06T01:58:45;92809.59;;;1.78;76.13
45793;BME280;31495;42.740;22.908;2024-03-06T01:59:46;92853.81;;;2.10;76.19
45793;BME280;31495;42.740;22.908;2024-03-06T02:00:45;92854.19;;;2.07;76.05
45793;BME280;31495;42.740;22.908;2024-03-06T02:01:45;92824.84;;;1.94;75.72
45793;BME280;31495;42.740;22.908;2024-03-06T02:02:45;92851.41;;;2.16;74.88
45793;BME280;31495;42.740;22.908;2024-03-06T02:03:45;92852.50;;;2.22;75.04
45793;BME280;31495;42.740;22.908;2024-03-06T02:04:45;92827.50;;;2.09;75.11
45793;BME280;31495;42.740;22.908;2024-03-06T02:05:48;92832.00;;;2.07;75.24
45793;BME280;31495;42.740;22.908;2024-03-06T02:06:48;92851.88;;;2.20;75.17
45793;BME280;31495;42.740;22.908;2024-03-06T02:07:48;92844.44;;;2.10;74.76
45793;BME280;31495;42.740;22.908;2024-03-06T02:08:48;92825.75;;;2.10;74.43
45793;BME280;31495;42.740;22.908;2024-03-06T02:09:48;92824.47;;;2.14;74.58
45793;BME280;31495;42.740;22.908;2024-03-06T02:10:48;92846.44;;;2.23;74.64
45793;BME280;31495;42.740;22.908;2024-03-06T02:11:48;92860.31;;;2.29;75.04
45793;BME280;31495;42.740;22.908;2024-03-06T02:12:49;92858.38;;;2.31;75.21
45793;BME280;31495;42.740;22.908;2024-03-06T02:13:49;92815.25;;;2.05;74.90
45793;BME280;31495;42.740;22.908;2024-03-06T02:14:49;92821.94;;;2.06;74.76
45793;BME280;31495;42.740;22.908;2024-03-06T02:15:49;92811.59;;;1.99;74.90
45793;BME280;31495;42.740;22.908;2024-03-06T02:16:49;92853.25;;;2.31;75.04
45793;BME280;31495;42.740;22.908;2024-03-06T02:17:48;92857.25;;;2.33;75.05
45793;BME280;31495;42.740;22.908;2024-03-06T02:18:54;92859.66;;;2.35;74.90
45793;BME280;31495;42.740;22.908;2024-03-06T02:19:55;92814.59;;;2.11;74.64
45793;BME280;31495;42.740;22.908;2024-03-06T02:20:55;92864.91;;;2.33;74.68
45793;BME280;31495;42.740;22.908;2024-03-06T02:21:55;92870.97;;;2.32;74.76
45793;BME280;31495;42.740;22.908;2024-03-06T02:22:54;92823.56;;;2.07;74.67
45793;BME280;31495;42.740;22.908;2024-03-06T02:23:54;92812.22;;;2.01;74.61
45793;BME280;31495;42.740;22.908;2024-03-06T02:24:53;92829.59;;;2.06;74.29
45793;BME280;31495;42.740;22.908;2024-03-06T02:25:53;92829.44;;;2.07;74.09
45793;BME280;31495;42.740;22.908;2024-03-06T02:26:52;92861.41;;;2.26;74.09
45793;BME280;31495;42.740;22.908;2024-03-06T02:27:52;92871.13;;;2.31;74.08
45793;BME280;31495;42.740;22.908;2024-03-06T02:28:53;92821.97;;;1.97;74.11
45793;BME280;31495;42.740;22.908;2024-03-06T02:29:52;92839.31;;;2.10;74.29
45793;BME280;31495;42.740;22.908;2024-03-06T02:30:52;92867.78;;;2.30;74.26
45793;BME280;31495;42.740;22.908;2024-03-06T02:31:51;92874.16;;;2.34;74.13
45793;BME280;31495;42.740;22.908;2024-03-06T02:32:51;92857.78;;;2.20;74.22
45793;BME280;31495;42.740;22.908;2024-03-06T02:33:50;92870.19;;;2.32;74.23
45793;BME280;31495;42.740;22.908;2024-03-06T02:34:50;92870.97;;;2.32;74.25
45793;BME280;31495;42.740;22.908;2024-03-06T02:35:49;92822.09;;;2.04;74.39
45793;BME280;31495;42.740;22.908;2024-03-06T02:36:50;92797.78;;;1.85;74.37
45793;BME280;31495;42.740;22.908;2024-03-06T02:37:50;92869.69;;;2.36;74.13
45793;BME280;31495;42.740;22.908;2024-03-06T02:38:50;92858.19;;;2.32;74.04
45793;BME280;31495;42.740;22.908;2024-03-06T02:39:49;92871.59;;;2.34;74.35
45793;BME280;31495;42.740;22.908;2024-03-06T02:40:48;92853.47;;;2.21;74.26
45793;BME280;31495;42.740;22.908;2024-03-06T02:41:48;92825.00;;;2.01;74.39
45793;BME280;31495;42.740;22.908;2024-03-06T02:42:48;92862.56;;;2.24;74.53
45793;BME280;31495;42.740;22.908;2024-03-06T02:43:47;92828.81;;;2.05;74.06
45793;BME280;31495;42.740;22.908;2024-03-06T02:44:47;92833.44;;;2.01;74.20
45793;BME280;31495;42.740;22.908;2024-03-06T02:45:46;92835.34;;;2.08;73.95
45793;BME280;31495;42.740;22.908;2024-03-06T02:46:47;92872.91;;;2.30;74.05
45793;BME280;31495;42.740;22.908;2024-03-06T02:47:48;92847.72;;;2.19;74.15
45793;BME280;31495;42.740;22.908;2024-03-06T02:48:47;92836.28;;;2.15;74.00
45793;BME280;31495;42.740;22.908;2024-03-06T02:49:47;92873.19;;;2.35;74.25
45793;BME280;31495;42.740;22.908;2024-03-06T02:50:46;92854.78;;;2.17;74.53
45793;BME280;31495;42.740;22.908;2024-03-06T02:51:45;92833.56;;;2.08;74.41
45793;BME280;31495;42.740;22.908;2024-03-06T02:52:45;92793.47;;;1.86;74.38
45793;BME280;31495;42.740;22.908;2024-03-06T02:53:45;92870.97;;;2.32;74.79
45793;BME280;31495;42.740;22.908;2024-03-06T02:54:44;92861.13;;;2.21;75.19
45793;BME280;31495;42.740;22.908;2024-03-06T02:55:44;92876.88;;;2.33;75.06
45793;BME280;31495;42.740;22.908;2024-03-06T02:56:44;92853.00;;;2.17;75.35
45793;BME280;31495;42.740;22.908;2024-03-06T02:57:43;92834.41;;;2.00;75.61
45793;BME280;31495;42.740;22.908;2024-03-06T02:58:43;92797.00;;;1.76;75.37
45793;BME280;31495;42.740;22.908;2024-03-06T02:59:42;92869.22;;;2.25;75.23
45793;BME280;31495;42.740;22.908;2024-03-06T03:00:42;92869.59;;;2.22;75.34
45793;BME280;31495;42.740;22.908;2024-03-06T03:01:42;92832.81;;;1.99;75.41
45793;BME280;31495;42.740;22.908;2024-03-06T03:02:42;92795.59;;;1.65;75.70
45793;BME280;31495;42.740;22.908;2024-03-06T03:03:42;92842.06;;;2.00;75.80
45793;BME280;31495;42.740;22.908;2024-03-06T03:04:43;92877.41;;;2.20;75.92
45793;BME280;31495;42.740;22.908;2024-03-06T03:05:43;92881.22;;;2.24;75.85
45793;BME280;31495;42.740;22.908;2024-03-06T03:06:43;92808.13;;;1.83;75.33
45793;BME280;31495;42.740;22.908;2024-03-06T03:07:42;92880.41;;;2.32;74.84
45793;BME280;31495;42.740;22.908;2024-03-06T03:08:41;92801.78;;;1.79;74.54
45793;BME280;31495;42.740;22.908;2024-03-06T03:09:41;92846.31;;;2.08;74.44
45793;BME280;31495;42.740;22.908;2024-03-06T03:10:40;92820.38;;;1.96;73.94
45793;BME280;31495;42.740;22.908;2024-03-06T03:11:42;92874.84;;;2.28;73.93
45793;BME280;31495;42.740;22.908;2024-03-06T03:12:42;92775.06;;;1.59;73.89
45793;BME280;31495;42.740;22.908;2024-03-06T03:13:42;92885.81;;;2.29;73.74
45793;BME280;31495;42.740;22.908;2024-03-06T03:14:41;92771.25;;;1.55;73.78
45793;BME280;31495;42.740;22.908;2024-03-06T03:15:41;92842.22;;;1.99;73.65
45793;BME280;31495;42.740;22.908;2024-03-06T03:16:40;92842.88;;;1.93;73.65
45793;BME280;31495;42.740;22.908;2024-03-06T03:17:41;92873.78;;;2.06;73.99
45793;BME280;31495;42.740;22.908;2024-03-06T03:18:40;92875.34;;;2.15;74.02
45793;BME280;31495;42.740;22.908;2024-03-06T03:19:40;92836.72;;;1.79;73.89
45793;BME280;31495;42.740;22.908;2024-03-06T03:20:41;92831.47;;;1.72;74.27
45793;BME280;31495;42.740;22.908;2024-03-06T03:21:44;92834.81;;;1.73;74.33
45793;BME280;31495;42.740;22.908;2024-03-06T03:22:44;92858.34;;;1.91;74.54
45793;BME280;31495;42.740;22.908;2024-03-06T03:23:44;92858.03;;;1.94;74.23
45793;BME280;31495;42.740;22.908;2024-03-06T03:24:43;92887.00;;;2.10;73.92
45793;BME280;31495;42.740;22.908;2024-03-06T03:25:43;92883.81;;;2.08;74.19
45793;BME280;31495;42.740;22.908;2024-03-06T03:26:42;92855.81;;;1.91;73.63
45793;BME280;31495;42.740;22.908;2024-03-06T03:27:42;92880.19;;;2.02;74.21
45793;BME280;31495;42.740;22.908;2024-03-06T03:28:43;92807.13;;;1.53;74.46
45793;BME280;31495;42.740;22.908;2024-03-06T03:29:42;92885.13;;;2.04;74.58
45793;BME280;31495;42.740;22.908;2024-03-06T03:30:45;92839.91;;;1.73;74.73
45793;BME280;31495;42.740;22.908;2024-03-06T03:31:45;92888.50;;;1.88;75.11
45793;BME280;31495;42.740;22.908;2024-03-06T03:32:44;92885.81;;;1.81;75.69
45793;BME280;31495;42.740;22.908;2024-03-06T03:33:44;92879.91;;;1.80;75.57
45793;BME280;31495;42.740;22.908;2024-03-06T03:34:44;92857.94;;;1.63;75.88
45793;BME280;31495;42.740;22.908;2024-03-06T03:35:43;92870.53;;;1.73;75.99
45793;BME280;31495;42.740;22.908;2024-03-06T03:36:43;92849.50;;;1.62;75.94
45793;BME280;31495;42.740;22.908;2024-03-06T03:37:43;92853.31;;;1.58;76.28
45793;BME280;31495;42.740;22.908;2024-03-06T03:38:45;92886.75;;;1.80;75.81
45793;BME280;31495;42.740;22.908;2024-03-06T03:39:44;92891.22;;;1.86;75.35
45793;BME280;31495;42.740;22.908;2024-03-06T03:40:44;92849.97;;;1.66;75.16
45793;BME280;31495;42.740;22.908;2024-03-06T03:41:46;92883.25;;;1.89;75.19
45793;BME280;31495;42.740;22.908;2024-03-06T03:42:46;92895.69;;;1.92;75.28
45793;BME280;31495;42.740;22.908;2024-03-06T03:43:47;92869.22;;;1.77;74.53
45793;BME280;31495;42.740;22.908;2024-03-06T03:44:46;92846.00;;;1.55;74.17
45793;BME280;31495;42.740;22.908;2024-03-06T03:45:45;92877.88;;;1.68;73.87
45793;BME280;31495;42.740;22.908;2024-03-06T03:46:45;92894.09;;;1.75;74.13
45793;BME280;31495;42.740;22.908;2024-03-06T03:47:45;92791.25;;;1.10;74.32
45793;BME280;31495;42.740;22.908;2024-03-06T03:48:44;92899.03;;;1.76;74.66
45793;BME280;31495;42.740;22.908;2024-03-06T03:49:44;92887.56;;;1.64;74.84
45793;BME280;31495;42.740;22.908;2024-03-06T03:50:43;92841.91;;;1.38;74.21
45793;BME280;31495;42.740;22.908;2024-03-06T03:51:43;92861.31;;;1.47;74.27
45793;BME280;31495;42.740;22.908;2024-03-06T03:52:43;92854.28;;;1.41;74.28
45793;BME280;31495;42.740;22.908;2024-03-06T03:53:43;92874.38;;;1.44;74.49
45793;BME280;31495;42.740;22.908;2024-03-06T03:54:43;92848.25;;;1.25;74.81
45793;BME280;31495;42.740;22.908;2024-03-06T03:55:44;92882.34;;;1.41;75.01
45793;BME280;31495;42.740;22.908;2024-03-06T03:56:44;92896.84;;;1.57;75.09
45793;BME280;31495;42.740;22.908;2024-03-06T03:57:44;92897.13;;;1.62;75.02
45793;BME280;31495;42.740;22.908;2024-03-06T03:58:44;92900.50;;;1.71;74.74
45793;BME280;31495;42.740;22.908;2024-03-06T03:59:46;92894.59;;;1.62;74.96
45793;BME280;31495;42.740;22.908;2024-03-06T04:00:46;92872.47;;;1.46;75.32
45793;BME280;31495;42.740;22.908;2024-03-06T04:01:46;92897.16;;;1.54;75.61
45793;BME280;31495;42.740;22.908;2024-03-06T04:02:49;92906.41;;;1.46;76.25
45793;BME280;31495;42.740;22.908;2024-03-06T04:03:49;92891.59;;;1.42;76.56
45793;BME280;31495;42.740;22.908;2024-03-06T04:04:50;92898.44;;;1.50;76.25
45793;BME280;31495;42.740;22.908;2024-03-06T04:05:49;92878.53;;;1.28;75.96
45793;BME280;31495;42.740;22.908;2024-03-06T04:06:49;92915.31;;;1.42;76.83
45793;BME280;31495;42.740;22.908;2024-03-06T04:07:49;92915.31;;;1.51;76.69
45793;BME280;31495;42.740;22.908;2024-03-06T04:08:48;92908.63;;;1.50;76.57
45793;BME280;31495;42.740;22.908;2024-03-06T04:09:48;92910.22;;;1.42;76.48
45793;BME280;31495;42.740;22.908;2024-03-06T04:10:49;92879.00;;;1.24;76.50
45793;BME280;31495;42.740;22.908;2024-03-06T04:11:48;92917.41;;;1.47;76.44
45793;BME280;31495;42.740;22.908;2024-03-06T04:12:47;92874.84;;;1.23;76.40
45793;BME280;31495;42.740;22.908;2024-03-06T04:13:48;92887.13;;;1.27;76.61
45793;BME280;31495;42.740;22.908;2024-03-06T04:14:47;92928.38;;;1.56;76.95
45793;BME280;31495;42.740;22.908;2024-03-06T04:15:47;92807.81;;;0.81;76.71
45793;BME280;31495;42.740;22.908;2024-03-06T04:16:46;92919.16;;;1.63;76.95
45793;BME280;31495;42.740;22.908;2024-03-06T04:17:45;92929.97;;;1.65;76.37
45793;BME280;31495;42.740;22.908;2024-03-06T04:18:46;92919.94;;;1.63;76.23
45793;BME280;31495;42.740;22.908;2024-03-06T04:19:46;92917.38;;;1.63;76.23
45793;BME280;31495;42.740;22.908;2024-03-06T04:20:47;92928.88;;;1.76;75.88
45793;BME280;31495;42.740;22.908;2024-03-06T04:21:47;92928.53;;;1.79;75.50
45793;BME280;31495;42.740;22.908;2024-03-06T04:22:46;92914.84;;;1.63;75.58
45793;BME280;31495;42.740;22.908;2024-03-06T04:23:47;92890.13;;;1.39;76.07
45793;BME280;31495;42.740;22.908;2024-03-06T04:24:46;92886.66;;;1.32;76.50
45793;BME280;31495;42.740;22.908;2024-03-06T04:25:46;92889.50;;;1.29;76.60
45793;BME280;31495;42.740;22.908;2024-03-06T04:26:46;92909.75;;;1.39;77.08
45793;BME280;31495;42.740;22.908;2024-03-06T04:27:46;92819.91;;;0.79;77.23
45793;BME280;31495;42.740;22.908;2024-03-06T04:28:46;92871.50;;;1.22;77.20
45793;BME280;31495;42.740;22.908;2024-03-06T04:29:47;92928.06;;;1.59;76.92
45793;BME280;31495;42.740;22.908;2024-03-06T04:30:46;92915.47;;;1.41;77.49
45793;BME280;31495;42.740;22.908;2024-03-06T04:31:47;92902.41;;;1.27;77.96
45793;BME280;31495;42.740;22.908;2024-03-06T04:32:47;92888.56;;;1.22;78.20
45793;BME280;31495;42.740;22.908;2024-03-06T04:33:47;92930.63;;;1.51;78.26
45793;BME280;31495;42.740;22.908;2024-03-06T04:34:47;92883.31;;;1.15;78.05
45793;BME280;31495;42.740;22.908;2024-03-06T04:35:47;92899.38;;;1.32;78.09
45793;BME280;31495;42.740;22.908;2024-03-06T04:36:47;92917.25;;;1.40;77.82
45793;BME280;31495;42.740;22.908;2024-03-06T04:37:47;92929.50;;;1.53;77.40
45793;BME280;31495;42.740;22.908;2024-03-06T04:38:47;92931.75;;;1.48;76.96
45793;BME280;31495;42.740;22.908;2024-03-06T04:39:48;92930.47;;;1.44;77.24
45793;BME280;31495;42.740;22.908;2024-03-06T04:40:48;92902.72;;;1.33;77.06
45793;BME280;31495;42.740;22.908;2024-03-06T04:41:48;92918.03;;;1.41;76.53
45793;BME280;31495;42.740;22.908;2024-03-06T04:42:48;92932.06;;;1.53;76.37
45793;BME280;31495;42.740;22.908;2024-03-06T04:43:48;92925.66;;;1.49;76.24
45793;BME280;31495;42.740;22.908;2024-03-06T04:44:49;92872.47;;;1.13;76.06
45793;BME280;31495;42.740;22.908;2024-03-06T04:45:49;92934.13;;;1.58;75.88
45793;BME280;31495;42.740;22.908;2024-03-06T04:46:51;92930.78;;;1.57;75.62
45793;BME280;31495;42.740;22.908;2024-03-06T04:47:51;92896.84;;;1.32;75.81
45793;BME280;31495;42.740;22.908;2024-03-06T04:48:50;92905.44;;;1.39;76.19
45793;BME280;31495;42.740;22.908;2024-03-06T04:49:50;92886.66;;;1.24;76.19
45793;BME280;31495;42.740;22.908;2024-03-06T04:50:49;92935.56;;;1.52;76.16
45793;BME280;31495;42.740;22.908;2024-03-06T04:51:48;92888.56;;;1.14;76.56
45793;BME280;31495;42.740;22.908;2024-03-06T04:52:49;92928.72;;;1.36;76.76
45793;BME280;31495;42.740;22.908;2024-03-06T04:53:49;92940.34;;;1.47;76.69
45793;BME280;31495;42.740;22.908;2024-03-06T04:54:49;92927.13;;;1.43;76.64
45793;BME280;31495;42.740;22.908;2024-03-06T04:55:49;92934.59;;;1.45;76.76
45793;BME280;31495;42.740;22.908;2024-03-06T04:56:49;92939.09;;;1.43;77.05
45793;BME280;31495;42.740;22.908;2024-03-06T04:57:49;92942.09;;;1.46;76.83
45793;BME280;31495;42.740;22.908;2024-03-06T04:58:49;92947.03;;;1.48;76.59
45793;BME280;31495;42.740;22.908;2024-03-06T04:59:50;92910.88;;;1.28;76.71
45793;BME280;31495;42.740;22.908;2024-03-06T05:00:50;92949.75;;;1.55;76.83
45793;BME280;31495;42.740;22.908;2024-03-06T05:01:49;92908.81;;;1.32;76.69
45793;BME280;31495;42.740;22.908;2024-03-06T05:02:49;92930.47;;;1.44;76.85
45793;BME280;31495;42.740;22.908;2024-03-06T05:03:49;92905.94;;;1.26;77.12
45793;BME280;31495;42.740;22.908;2024-03-06T05:04:49;92924.25;;;1.38;76.77
45793;BME280;31495;42.740;22.908;2024-03-06T05:05:50;92915.31;;;1.34;76.66
45793;BME280;31495;42.740;22.908;2024-03-06T05:06:50;92926.19;;;1.44;76.36
45793;BME280;31495;42.740;22.908;2024-03-06T05:07:49;92947.66;;;1.67;76.42
45793;BME280;31495;42.740;22.908;2024-03-06T05:08:50;92951.16;;;1.65;76.44
45793;BME280;31495;42.740;22.908;2024-03-06T05:09:50;92912.13;;;1.40;76.29
45793;BME280;31495;42.740;22.908;2024-03-06T05:10:50;92946.88;;;1.66;76.59
45793;BME280;31495;42.740;22.908;2024-03-06T05:11:50;92944.81;;;1.61;76.37
45793;BME280;31495;42.740;22.908;2024-03-06T05:12:50;92949.75;;;1.63;76.20
45793;BME280;31495;42.740;22.908;2024-03-06T05:13:50;92908.34;;;1.36;75.91
45793;BME280;31495;42.740;22.908;2024-03-06T05:14:54;92956.09;;;1.67;75.79
45793;BME280;31495;42.740;22.908;2024-03-06T05:15:54;92905.78;;;1.36;75.82
45793;BME280;31495;42.740;22.908;2024-03-06T05:16:53;92941.13;;;1.56;75.96
45793;BME280;31495;42.740;22.908;2024-03-06T05:17:53;92849.22;;;1.00;75.61